createdAt,value
2018-08-13T00:01:43.723Z,27.8
2018-08-13T00:11:42.962Z,27.8
2018-08-13T00:21:42.201Z,27.8
2018-08-13T00:31:41.447Z,27.8
2018-08-13T00:41:40.680Z,27.8
2018-08-13T00:51:39.919Z,27.8
2018-08-13T01:01:39.212Z,27.8
2018-08-13T01:11:38.397Z,27.7
2018-08-13T01:21:37.640Z,27.7
2018-08-13T01:31:36.877Z,27.7
2018-08-13T01:41:36.122Z,27.7
2018-08-13T01:51:35.353Z,27.6
2018-08-13T02:01:34.637Z,27.7
2018-08-13T02:11:33.830Z,27.7
2018-08-13T02:21:33.071Z,27.7
2018-08-13T02:31:32.307Z,27.7
2018-08-13T02:41:31.546Z,27.6
2018-08-13T02:51:30.797Z,27.6
2018-08-13T03:01:30.025Z,27.5
2018-08-13T03:11:29.262Z,27.5
2018-08-13T03:21:28.506Z,27.5
2018-08-13T03:31:27.743Z,27.5
2018-08-13T03:41:26.983Z,27.5
2018-08-13T03:51:26.270Z,27.5
2018-08-13T04:01:25.460Z,27.5
2018-08-13T04:11:24.701Z,27.5
2018-08-13T04:21:23.940Z,27.6
2018-08-13T04:31:23.180Z,27.6
2018-08-13T04:41:22.420Z,27.6
2018-08-13T04:51:21.665Z,27.6
2018-08-13T05:01:20.897Z,27.6
2018-08-13T05:11:20.141Z,27.6
2018-08-13T05:21:19.464Z,27.6
2018-08-13T05:31:18.612Z,27.6
2018-08-13T05:41:17.901Z,27.6
2018-08-13T05:51:17.092Z,27.6
2018-08-13T06:01:16.332Z,27.6
2018-08-13T06:11:15.632Z,27.6
2018-08-13T06:21:14.805Z,27.6
2018-08-13T06:31:14.051Z,27.6
2018-08-13T06:41:13.282Z,27.6
2018-08-13T06:51:12.520Z,27.6
2018-08-13T07:01:11.759Z,27.7
2018-08-13T07:11:10.999Z,27.6
2018-08-13T07:21:10.239Z,27.6
2018-08-13T07:31:09.482Z,27.7
2018-08-13T07:41:08.717Z,27.6
2018-08-13T07:51:07.952Z,27.7
2018-08-13T08:01:07.199Z,27.7
2018-08-13T08:11:06.438Z,27.7
2018-08-13T08:21:05.675Z,27.7
2018-08-13T08:31:04.908Z,27.7
2018-08-13T08:41:04.148Z,27.7
2018-08-13T08:51:03.391Z,27.7
2018-08-13T09:01:02.629Z,27.8
2018-08-13T09:11:01.866Z,27.8
2018-08-13T09:21:01.111Z,27.8
2018-08-13T09:31:00.345Z,27.8
2018-08-13T09:40:59.585Z,27.8
2018-08-13T09:50:58.875Z,27.8
2018-08-13T10:00:58.068Z,27.8
2018-08-13T10:10:57.357Z,27.8
2018-08-13T10:20:56.548Z,27.8
2018-08-13T10:30:55.790Z,27.8
2018-08-13T10:40:55.031Z,27.8
2018-08-13T10:50:54.271Z,27.8
2018-08-13T11:00:53.510Z,27.8
2018-08-13T11:10:52.750Z,27.9
2018-08-13T11:20:51.993Z,27.9
2018-08-13T11:30:51.237Z,27.9
2018-08-13T11:40:50.472Z,27.9
2018-08-13T11:50:49.717Z,27.9
2018-08-13T12:00:48.954Z,27.9
2018-08-13T12:10:48.202Z,27.9
2018-08-13T12:20:47.435Z,27.9
2018-08-13T12:30:46.674Z,27.9
2018-08-13T12:40:45.921Z,28
2018-08-13T12:50:45.156Z,28
2018-08-13T13:00:44.394Z,28
2018-08-13T13:10:43.635Z,28
2018-08-13T13:20:42.875Z,28
2018-08-13T13:30:42.113Z,28
2018-08-13T13:40:41.354Z,28.1
2018-08-13T13:50:40.593Z,28
2018-08-13T14:00:39.835Z,28
2018-08-13T14:10:39.074Z,28
2018-08-13T14:20:38.313Z,28.1
2018-08-13T14:30:37.554Z,28.1
2018-08-13T14:40:36.793Z,28.1
2018-08-13T14:50:36.035Z,28.1
2018-08-13T15:00:35.272Z,28.1
2018-08-13T15:10:34.513Z,28.1
2018-08-13T15:20:33.757Z,28.1
2018-08-13T15:30:32.997Z,28.1
2018-08-13T15:40:32.236Z,28.1
2018-08-13T15:50:31.479Z,28
2018-08-13T16:00:30.730Z,27.9
2018-08-13T16:10:29.966Z,27.8
2018-08-13T16:20:29.209Z,27.7
2018-08-13T16:30:28.451Z,27.6
2018-08-13T16:40:27.694Z,27.5
2018-08-13T16:50:26.943Z,27.4
2018-08-13T17:00:26.192Z,27.4
2018-08-13T17:10:25.421Z,27.3
2018-08-13T17:20:24.663Z,27.1
2018-08-13T17:30:23.911Z,26.9
2018-08-13T17:40:23.148Z,26.8
2018-08-13T17:50:22.394Z,26.6
2018-08-13T18:00:21.684Z,26.5
2018-08-13T18:10:20.877Z,26.4
2018-08-13T18:20:20.130Z,26.4
2018-08-13T18:30:19.368Z,26.4
2018-08-13T18:40:18.614Z,26.4
2018-08-13T18:50:17.858Z,26.1
2018-08-13T19:00:17.101Z,25.9
2018-08-13T19:10:16.336Z,25.9
2018-08-13T19:20:15.581Z,26.2
2018-08-13T19:30:14.825Z,26.4
2018-08-13T19:40:14.071Z,26.7
2018-08-13T19:50:13.398Z,26.8
2018-08-13T20:00:12.550Z,26.9
2018-08-13T20:10:11.798Z,26.9
2018-08-13T20:20:11.036Z,27.1
2018-08-13T20:30:10.281Z,27.1
2018-08-13T20:40:09.522Z,27.1
2018-08-13T20:50:08.766Z,27.2
2018-08-13T21:00:08.004Z,27.3
2018-08-13T21:10:07.248Z,27.3
2018-08-13T21:20:06.488Z,27.3
2018-08-13T21:30:05.735Z,27.4
2018-08-13T21:40:04.971Z,27.4
2018-08-13T21:50:04.210Z,27.4
2018-08-13T22:00:03.449Z,27.5
2018-08-13T22:10:02.744Z,27.5
2018-08-13T22:20:01.934Z,27.6
2018-08-13T22:30:01.175Z,27.6
2018-08-13T22:40:00.410Z,27.6
2018-08-13T22:49:59.650Z,27.6
2018-08-13T22:59:58.892Z,27.7
2018-08-13T23:09:58.131Z,27.7
2018-08-13T23:19:57.370Z,27.7
2018-08-13T23:29:56.612Z,27.8
2018-08-13T23:39:55.851Z,27.8
2018-08-13T23:49:55.090Z,27.8
2018-08-13T23:59:54.331Z,27.8
